Terminal Aerodrome Forecast
Issued by NWS Pueblo, CO

Home | Current Version | Previous Version | Text Only | Print | Product List | Glossary On
Versions: 1 2 3 4 5 6 7 8 9 10 11 12 13 14 15 16 17 18 19 20 21 22 23
000
FTUS45 KPUB 240538
TAFALS
TAF
KALS 240538Z 2406/2506 13008KT P6SM SCT050 SCT090
     FM241600 18014G24KT P6SM SCT060 SCT100
     FM242200 21018G28KT P6SM SCT070
     FM250100 22010KT P6SM FEW070 SCT150=

USA.gov is the U.S. government's official web portal to all federal, state and local government web resources and services.